createdAt,value
2024-04-06T00:01:04.929Z,97544.13
2024-04-06T00:03:53.543Z,97544.93
2024-04-06T00:06:20.888Z,97543.52
2024-04-06T00:08:50.174Z,97544.55
2024-04-06T00:11:17.876Z,97542.04
2024-04-06T00:13:45.756Z,97544.70
2024-04-06T00:16:12.616Z,97547.05
2024-04-06T00:18:40.754Z,97547.48
2024-04-06T00:21:07.568Z,97537.77
2024-04-06T00:23:34.620Z,97540.80
2024-04-06T00:26:01.517Z,97535.43
2024-04-06T00:28:28.507Z,97537.14
2024-04-06T00:30:55.715Z,97531.63
2024-04-06T00:33:22.699Z,97532.69
2024-04-06T00:35:49.743Z,97529.42
2024-04-06T00:38:16.681Z,97530.31
2024-04-06T00:40:43.685Z,97528.23
2024-04-06T00:43:10.813Z,97523.91
2024-04-06T00:45:37.837Z,97522.41
2024-04-06T00:48:05.624Z,97526.65
2024-04-06T00:50:34.473Z,97528.19
2024-04-06T00:53:01.628Z,97527.47
2024-04-06T00:55:29.179Z,97526.50
2024-04-06T00:57:56.118Z,97523.64
2024-04-06T01:00:23.434Z,97525.39
2024-04-06T01:02:51.205Z,97525.71
2024-04-06T01:05:18.067Z,97520.70
2024-04-06T01:07:46.431Z,97524.14
2024-04-06T01:10:13.528Z,97522.20
2024-04-06T01:12:40.389Z,97525.99
2024-04-06T01:15:07.526Z,97529.77
2024-04-06T01:17:34.553Z,97527.16
2024-04-06T01:20:01.499Z,97524.87
2024-04-06T01:22:28.688Z,97528.23
2024-04-06T01:24:58.410Z,97532.08
2024-04-06T01:27:25.726Z,97533.02
2024-04-06T01:29:52.682Z,97529.80
2024-04-06T01:32:19.699Z,97526.08
2024-04-06T01:34:46.564Z,97523.41
2024-04-06T01:37:16.531Z,97522.98
2024-04-06T01:39:43.478Z,97519.91
2024-04-06T01:42:10.408Z,97520.16
2024-04-06T01:44:37.546Z,97523.52
2024-04-06T01:47:04.633Z,97517.38
2024-04-06T01:49:32.092Z,97507.84
2024-04-06T01:51:59.234Z,97500.55
2024-04-06T01:54:26.384Z,97497.77
2024-04-06T01:56:53.528Z,97496.74
2024-04-06T01:59:20.507Z,97498.28
2024-04-06T02:01:48.017Z,97497.52
2024-04-06T02:04:15.008Z,97500.06
2024-04-06T02:06:42.061Z,97495.23
2024-04-06T02:09:08.909Z,97490.96
2024-04-06T02:11:35.759Z,97492.58
2024-04-06T02:14:02.739Z,97489.61
2024-04-06T02:16:29.634Z,97479.20
2024-04-06T02:18:56.553Z,97479.24
2024-04-06T02:21:23.552Z,97483.94
2024-04-06T02:23:50.445Z,97488.31
2024-04-06T02:26:17.308Z,97488.23
2024-04-06T02:28:44.185Z,97491.63
2024-04-06T02:31:11.315Z,97487.53
2024-04-06T02:33:38.530Z,97479.61
2024-04-06T02:36:05.810Z,97472.17
2024-04-06T02:38:32.697Z,97472.11
2024-04-06T02:40:59.900Z,97473.96
2024-04-06T02:43:26.767Z,97471.06
2024-04-06T02:45:53.769Z,97477.16
2024-04-06T02:48:20.721Z,97487.31
2024-04-06T02:50:47.909Z,97486.16
2024-04-06T02:53:14.775Z,97485.73
2024-04-06T02:55:42.011Z,97480.63
2024-04-06T02:58:09.050Z,97472.47
2024-04-06T03:00:38.251Z,97465.58
2024-04-06T03:03:05.220Z,97466.05
2024-04-06T03:05:32.261Z,97470.44
2024-04-06T03:07:59.252Z,97472.56
2024-04-06T03:10:26.386Z,97473.58
2024-04-06T03:12:53.275Z,97467.72
2024-04-06T03:15:20.375Z,97470.67
2024-04-06T03:17:47.505Z,97471.23
2024-04-06T03:20:14.695Z,97469.94
2024-04-06T03:22:43.721Z,97468.78
2024-04-06T03:25:10.847Z,97473.35
2024-04-06T03:27:37.914Z,97470.84
2024-04-06T03:30:06.077Z,97473.45
2024-04-06T03:32:33.240Z,97472.47
2024-04-06T03:35:00.191Z,97471.75
2024-04-06T03:37:27.048Z,97468.38
2024-04-06T03:39:54.349Z,97470.23
2024-04-06T03:42:21.536Z,97470.13
2024-04-06T03:44:48.467Z,97469.85
2024-04-06T03:47:15.845Z,97476.61
2024-04-06T03:49:43.583Z,97478.86
2024-04-06T03:52:11.014Z,97483.85
2024-04-06T03:54:37.870Z,97484.65
2024-04-06T03:57:05.089Z,97477.63
2024-04-06T03:59:32.774Z,97481.87
2024-04-06T04:02:00.029Z,97474.92
2024-04-06T04:04:26.843Z,97474.52
2024-04-06T04:06:55.141Z,97478.27
2024-04-06T04:09:22.442Z,97483.56
2024-04-06T04:11:49.376Z,97487.78
2024-04-06T04:14:16.818Z,97489.06
2024-04-06T04:16:43.981Z,97490.29
2024-04-06T04:19:11.842Z,97492.02
2024-04-06T04:21:39.117Z,97492.89
2024-04-06T04:24:06.368Z,97494.93
2024-04-06T04:26:33.884Z,97496.61
2024-04-06T04:29:01.082Z,97499.98
2024-04-06T04:31:28.447Z,97502.05
2024-04-06T04:33:55.629Z,97502.11
2024-04-06T04:36:22.604Z,97496.09
2024-04-06T04:38:50.494Z,97501.30
2024-04-06T04:41:17.285Z,97498.05
2024-04-06T04:43:44.319Z,97498.61
2024-04-06T04:46:12.031Z,97506.94
2024-04-06T04:48:57.055Z,97506.08
2024-04-06T04:51:24.603Z,97509.92
2024-04-06T04:53:51.534Z,97513.36
2024-04-06T04:56:19.766Z,97511.18
2024-04-06T04:58:48.026Z,97514.98
2024-04-06T05:01:18.817Z,97513.12
2024-04-06T05:03:45.643Z,97510.20
2024-04-06T05:06:12.540Z,97502.05
2024-04-06T05:08:40.136Z,97495.70
2024-04-06T05:11:07.646Z,97493.59
2024-04-06T05:13:35.437Z,97493.54
2024-04-06T05:16:02.713Z,97491.11
2024-04-06T05:18:29.494Z,97490.56
2024-04-06T05:20:59.034Z,97484.31
2024-04-06T05:23:28.139Z,97486.81
2024-04-06T05:25:55.995Z,97491.23
2024-04-06T05:28:28.027Z,97490.55
2024-04-06T05:30:55.632Z,97489.84
2024-04-06T05:33:23.169Z,97485.27
2024-04-06T05:35:51.671Z,97488.34
2024-04-06T05:38:22.131Z,97489.15
2024-04-06T05:40:53.313Z,97488.40
2024-04-06T05:43:20.095Z,97491.12
2024-04-06T05:45:46.906Z,97489.79
2024-04-06T05:48:13.943Z,97483.26
2024-04-06T05:50:46.669Z,97475.90
2024-04-06T05:53:13.708Z,97475.45
2024-04-06T05:55:40.647Z,97476.54
2024-04-06T05:58:07.770Z,97475.44
2024-04-06T06:00:34.579Z,97473.67
2024-04-06T06:03:01.494Z,97476.18
2024-04-06T06:05:28.350Z,97478.50
2024-04-06T06:07:55.191Z,97480.89
2024-04-06T06:10:22.247Z,97478.08
2024-04-06T06:12:49.199Z,97479.15
2024-04-06T06:15:16.016Z,97475.96
2024-04-06T06:17:42.979Z,97474.48
2024-04-06T06:20:10.140Z,97466.81
2024-04-06T06:22:37.143Z,97462.88
2024-04-06T06:25:04.604Z,97468.45
2024-04-06T06:27:31.540Z,97467.92
2024-04-06T06:30:00.936Z,97463.23
2024-04-06T06:32:28.015Z,97463.00
2024-04-06T06:34:55.119Z,97466.12
2024-04-06T06:42:21.624Z,97467.29
2024-04-06T06:44:48.524Z,97467.33
2024-04-06T06:47:15.479Z,97465.66
2024-04-06T06:49:42.303Z,97470.14
2024-04-06T06:52:09.321Z,97472.16
2024-04-06T06:54:36.479Z,97470.96
2024-04-06T06:57:03.882Z,97470.23
2024-04-06T07:02:00.472Z,97466.78
2024-04-06T07:04:27.228Z,97463.80
2024-04-06T07:09:25.067Z,97469.31
2024-04-06T07:11:52.500Z,97471.14
2024-04-06T07:14:19.277Z,97468.98
2024-04-06T07:16:46.468Z,97468.77
2024-04-06T07:19:13.371Z,97466.16
2024-04-06T07:21:40.225Z,97468.05
2024-04-06T07:24:07.338Z,97468.58
2024-04-06T07:26:34.427Z,97465.78
2024-04-06T07:29:01.129Z,97463.21
2024-04-06T07:31:28.001Z,97459.92
2024-04-06T07:33:55.037Z,97452.99
2024-04-06T07:36:21.967Z,97447.64
2024-04-06T07:41:18.800Z,97438.20
2024-04-06T07:43:45.777Z,97433.36
2024-04-06T07:46:12.777Z,97435.23
2024-04-06T07:48:39.714Z,97432.79
2024-04-06T07:51:06.507Z,97427.55
2024-04-06T07:53:33.451Z,97425.95
2024-04-06T07:56:00.391Z,97427.43
2024-04-06T07:58:27.227Z,97424.46
2024-04-06T08:00:54.117Z,97425.27
2024-04-06T08:03:20.958Z,97425.91
2024-04-06T08:05:54.136Z,97430.73
2024-04-06T08:08:21.097Z,97431.17
2024-04-06T08:10:47.889Z,97428.25
2024-04-06T08:13:15.153Z,97427.44
2024-04-06T08:15:42.279Z,97425.14
2024-04-06T08:18:09.075Z,97425.66
2024-04-06T08:20:36.068Z,97427.44
2024-04-06T08:23:03.705Z,97419.82
2024-04-06T08:25:30.529Z,97416.79
2024-04-06T08:27:57.555Z,97413.02
2024-04-06T08:30:24.467Z,97416.14
2024-04-06T08:33:01.003Z,97419.25
2024-04-06T08:35:29.105Z,97409.94
2024-04-06T08:37:56.041Z,97405.27
2024-04-06T08:40:22.984Z,97400.11
2024-04-06T08:42:51.109Z,97402.95
2024-04-06T08:45:20.907Z,97399.34
2024-04-06T08:47:47.807Z,97397.08
2024-04-06T08:50:15.022Z,97404.92
2024-04-06T08:52:41.766Z,97403.96
2024-04-06T08:55:10.064Z,97402.18
2024-04-06T08:57:39.064Z,97403.52
2024-04-06T09:00:12.411Z,97400.72
2024-04-06T09:02:40.097Z,97397.04
2024-04-06T09:05:07.974Z,97396.35
2024-04-06T09:07:35.168Z,97396.67
2024-04-06T09:10:02.044Z,97396.02
2024-04-06T09:12:29.060Z,97390.46
2024-04-06T09:14:55.964Z,97391.35
2024-04-06T09:17:22.770Z,97392.91
2024-04-06T09:19:49.835Z,97391.23
2024-04-06T09:22:18.453Z,97389.98
2024-04-06T09:24:46.200Z,97390.37
2024-04-06T09:27:22.575Z,97392.85
2024-04-06T09:29:49.525Z,97395.84
2024-04-06T09:32:21.146Z,97400.92
2024-04-06T09:34:53.073Z,97408.62
2024-04-06T09:37:27.195Z,97417.02
2024-04-06T09:39:57.352Z,97417.10
2024-04-06T09:42:25.611Z,97419.36
2024-04-06T09:44:55.290Z,97430.45
2024-04-06T09:47:24.053Z,97438.73
2024-04-06T09:49:51.648Z,97442.19
2024-04-06T09:52:22.470Z,97455.40
2024-04-06T09:54:49.568Z,97466.42
2024-04-06T09:57:18.651Z,97470.63
2024-04-06T09:59:46.658Z,97495.73
2024-04-06T10:02:26.051Z,97491.48
2024-04-06T10:04:57.389Z,97486.36
2024-04-06T10:07:31.774Z,97485.42
2024-04-06T10:10:07.196Z,97484.66
2024-04-06T10:12:52.344Z,97487.64
2024-04-06T10:15:21.603Z,97489.81
2024-04-06T10:17:50.513Z,97490.08
2024-04-06T10:20:19.084Z,97494.59
2024-04-06T10:22:51.229Z,97496.34
2024-04-06T10:25:27.118Z,97495.20
2024-04-06T10:28:02.362Z,97490.84
2024-04-06T10:30:29.827Z,97499.00
2024-04-06T10:32:56.998Z,97501.61
2024-04-06T10:35:24.893Z,97501.33
2024-04-06T10:37:52.422Z,97499.14
2024-04-06T10:40:34.836Z,97502.14
2024-04-06T10:43:05.225Z,97501.97
2024-04-06T10:45:33.786Z,97501.13
2024-04-06T10:48:03.054Z,97496.80
2024-04-06T10:50:30.234Z,97493.20
2024-04-06T10:52:58.630Z,97489.69
2024-04-06T10:55:26.945Z,97484.84
2024-04-06T10:57:57.135Z,97485.36
2024-04-06T11:00:27.035Z,97488.27
2024-04-06T11:03:02.311Z,97489.05
2024-04-06T11:05:30.976Z,97487.64
2024-04-06T11:07:58.667Z,97485.33
2024-04-06T11:10:25.758Z,97480.05
2024-04-06T11:12:52.785Z,97473.52
2024-04-06T11:15:23.974Z,97464.80
2024-04-06T11:17:51.356Z,97467.35
2024-04-06T11:20:18.683Z,97468.18
2024-04-06T11:22:46.879Z,97461.69
2024-04-06T11:25:15.558Z,97455.36
2024-04-06T11:27:52.071Z,97452.27
2024-04-06T11:30:21.238Z,97439.14
2024-04-06T11:32:52.831Z,97433.25
2024-04-06T11:35:20.273Z,97426.02
2024-04-06T11:37:47.662Z,97420.34
2024-04-06T11:40:15.618Z,97417.67
2024-04-06T11:42:42.639Z,97408.44
2024-04-06T11:45:09.697Z,97402.50
2024-04-06T11:47:36.768Z,97402.39
2024-04-06T11:50:04.088Z,97398.23
2024-04-06T11:52:31.270Z,97392.97
2024-04-06T11:54:58.209Z,97390.43
2024-04-06T11:57:25.471Z,97385.79
2024-04-06T11:59:52.841Z,97376.59
2024-04-06T12:02:19.785Z,97375.75
2024-04-06T12:04:46.521Z,97366.27
2024-04-06T12:07:13.830Z,97362.58
2024-04-06T12:09:40.741Z,97358.32
2024-04-06T12:12:08.770Z,97353.86
2024-04-06T12:14:35.606Z,97351.38
2024-04-06T12:17:03.028Z,97347.17
2024-04-06T12:19:30.000Z,97348.29
2024-04-06T12:21:56.815Z,97347.11
2024-04-06T12:24:26.036Z,97341.90
2024-04-06T12:26:52.975Z,97346.67
2024-04-06T12:29:19.856Z,97339.04
2024-04-06T12:31:47.098Z,97335.99
2024-04-06T12:34:13.854Z,97342.10
2024-04-06T12:36:40.932Z,97338.55
2024-04-06T12:39:10.315Z,97340.58
2024-04-06T12:41:37.755Z,97338.50
2024-04-06T12:44:05.251Z,97343.23
2024-04-06T12:46:32.197Z,97343.77
2024-04-06T12:48:59.113Z,97337.09
2024-04-06T12:51:26.244Z,97340.84
2024-04-06T12:53:54.907Z,97338.39
2024-04-06T12:56:21.897Z,97334.81
2024-04-06T12:58:48.727Z,97330.83
2024-04-06T13:01:15.663Z,97327.88
2024-04-06T13:03:52.590Z,97324.64
2024-04-06T13:06:27.596Z,97323.16
2024-04-06T13:08:55.035Z,97325.27
2024-04-06T13:11:22.178Z,97327.12
2024-04-06T13:13:50.424Z,97322.65
2024-04-06T13:16:18.543Z,97325.58
2024-04-06T13:18:46.923Z,97323.48
2024-04-06T13:21:14.344Z,97322.61
2024-04-06T13:23:41.706Z,97321.75
2024-04-06T13:26:12.040Z,97322.77
2024-04-06T13:28:39.094Z,97318.73
2024-04-06T13:31:08.615Z,97314.27
2024-04-06T13:33:36.579Z,97314.52
2024-04-06T13:36:04.248Z,97314.14
2024-04-06T13:38:31.497Z,97316.74
2024-04-06T13:40:58.587Z,97309.57
2024-04-06T13:43:26.254Z,97310.11
2024-04-06T13:45:55.351Z,97308.77
2024-04-06T13:48:22.397Z,97304.99
2024-04-06T13:50:55.099Z,97302.23
2024-04-06T13:53:22.561Z,97302.63
2024-04-06T13:55:49.710Z,97305.27
2024-04-06T13:58:18.377Z,97296.04
2024-04-06T14:00:45.536Z,97289.00
2024-04-06T14:03:12.693Z,97286.83
2024-04-06T14:05:39.864Z,97286.44
2024-04-06T14:08:07.096Z,97285.95
2024-04-06T14:10:34.059Z,97282.47
2024-04-06T14:13:02.467Z,97271.53
2024-04-06T14:15:29.489Z,97273.38
2024-04-06T14:17:56.754Z,97272.35
2024-04-06T14:20:23.687Z,97273.31
2024-04-06T14:22:50.866Z,97273.57
2024-04-06T14:25:18.767Z,97272.61
2024-04-06T14:27:45.996Z,97269.38
2024-04-06T14:30:33.311Z,97267.89
2024-04-06T14:33:00.514Z,97266.04
2024-04-06T14:35:27.506Z,97262.83
2024-04-06T14:37:54.384Z,97260.53
2024-04-06T14:40:21.929Z,97258.57
2024-04-06T14:42:50.155Z,97256.36
2024-04-06T14:45:17.074Z,97256.23
2024-04-06T14:47:44.346Z,97257.32
2024-04-06T14:50:11.717Z,97252.83
2024-04-06T14:52:40.362Z,97245.52
2024-04-06T14:55:07.409Z,97243.43
2024-04-06T14:57:34.294Z,97244.17
2024-04-06T15:00:05.798Z,97246.48
2024-04-06T15:02:32.822Z,97246.35
2024-04-06T15:05:04.264Z,97247.48
2024-04-06T15:07:37.078Z,97248.18
2024-04-06T15:10:05.868Z,97244.64
2024-04-06T15:12:33.624Z,97252.63
2024-04-06T15:15:00.951Z,97253.05
2024-04-06T15:17:28.833Z,97253.34
2024-04-06T15:19:56.176Z,97258.17
2024-04-06T15:22:23.081Z,97261.40
2024-04-06T15:24:50.387Z,97259.59
2024-04-06T15:27:17.205Z,97265.14
2024-04-06T15:29:44.387Z,97270.57
2024-04-06T15:32:12.163Z,97277.31
2024-04-06T15:34:39.421Z,97274.90
2024-04-06T15:37:09.018Z,97279.27
2024-04-06T15:39:35.937Z,97287.75
2024-04-06T15:42:03.691Z,97287.66
2024-04-06T15:44:30.800Z,97289.35
2024-04-06T15:46:57.852Z,97307.26
2024-04-06T15:49:25.231Z,97315.13
2024-04-06T15:51:52.311Z,97323.92
2024-04-06T15:54:19.057Z,97324.51
2024-04-06T15:56:45.957Z,97327.99
2024-04-06T15:59:12.813Z,97330.54
2024-04-06T16:01:41.236Z,97334.14
2024-04-06T16:04:08.831Z,97332.97
2024-04-06T16:06:36.888Z,97335.20
2024-04-06T16:09:04.506Z,97328.02
2024-04-06T16:11:31.773Z,97328.90
2024-04-06T16:14:02.007Z,97328.70
2024-04-06T16:16:29.241Z,97326.86
2024-04-06T16:18:56.392Z,97332.24
2024-04-06T16:21:23.905Z,97328.98
2024-04-06T16:23:51.639Z,97320.44
2024-04-06T16:26:18.898Z,97316.64
2024-04-06T16:28:45.683Z,97321.06
2024-04-06T16:31:13.208Z,97330.25
2024-04-06T16:33:40.170Z,97330.88
2024-04-06T16:36:07.715Z,97330.64
2024-04-06T16:38:34.891Z,97328.11
2024-04-06T16:41:02.357Z,97324.24
2024-04-06T16:43:29.335Z,97325.02
2024-04-06T16:45:56.879Z,97319.27
2024-04-06T16:48:23.760Z,97315.45
2024-04-06T16:50:50.775Z,97306.50
2024-04-06T16:53:17.708Z,97313.61
2024-04-06T16:55:44.614Z,97313.91
2024-04-06T16:58:11.933Z,97323.95
2024-04-06T17:00:39.106Z,97330.33
2024-04-06T17:03:06.377Z,97331.09
2024-04-06T17:05:33.665Z,97334.38
2024-04-06T17:08:01.128Z,97337.29
2024-04-06T17:10:28.633Z,97339.63
2024-04-06T17:12:55.781Z,97344.34
2024-04-06T17:15:23.085Z,97341.23
2024-04-06T17:17:50.323Z,97341.58
2024-04-06T17:20:22.188Z,97342.15
2024-04-06T17:22:49.428Z,97345.27
2024-04-06T17:25:16.779Z,97348.80
2024-04-06T17:27:43.873Z,97346.90
2024-04-06T17:30:11.403Z,97342.99
2024-04-06T17:32:38.849Z,97337.92
2024-04-06T17:35:06.191Z,97348.23
2024-04-06T17:37:33.881Z,97353.98
2024-04-06T17:40:01.047Z,97364.80
2024-04-06T17:42:28.360Z,97374.02
2024-04-06T17:44:55.669Z,97377.05
2024-04-06T17:47:24.359Z,97374.25
2024-04-06T17:49:51.620Z,97372.92
2024-04-06T17:52:19.217Z,97373.92
2024-04-06T17:54:47.597Z,97370.04
2024-04-06T17:57:14.539Z,97374.66
2024-04-06T17:59:41.533Z,97378.27
2024-04-06T18:02:12.206Z,97389.36
2024-04-06T18:04:39.534Z,97398.16
2024-04-06T18:07:06.724Z,97402.77
2024-04-06T18:09:34.319Z,97403.08
2024-04-06T18:12:01.922Z,97402.34
2024-04-06T18:14:28.778Z,97405.74
2024-04-06T18:16:56.099Z,97408.14
2024-04-06T18:19:23.324Z,97408.65
2024-04-06T18:21:50.211Z,97411.43
2024-04-06T18:24:17.418Z,97415.28
2024-04-06T18:26:44.376Z,97417.73
2024-04-06T18:29:11.716Z,97420.91
2024-04-06T18:31:38.897Z,97427.77
2024-04-06T18:34:06.365Z,97430.10
2024-04-06T18:36:33.723Z,97426.20
2024-04-06T18:39:01.703Z,97432.96
2024-04-06T18:41:28.968Z,97436.17
2024-04-06T18:43:55.736Z,97433.42
2024-04-06T18:46:22.850Z,97432.63
2024-04-06T18:48:49.829Z,97436.95
2024-04-06T18:51:17.294Z,97436.88
2024-04-06T18:53:44.548Z,97438.38
2024-04-06T18:56:11.900Z,97436.05
2024-04-06T18:58:38.724Z,97432.52
2024-04-06T19:01:10.286Z,97437.15
2024-04-06T19:03:42.673Z,97437.29
2024-04-06T19:06:09.727Z,97433.68
2024-04-06T19:08:36.916Z,97432.71
2024-04-06T19:11:04.169Z,97434.52
2024-04-06T19:13:30.930Z,97441.88
2024-04-06T19:15:57.823Z,97444.86
2024-04-06T19:18:24.908Z,97442.98
2024-04-06T19:20:52.948Z,97450.70
2024-04-06T19:23:19.867Z,97452.64
2024-04-06T19:25:46.707Z,97454.65
2024-04-06T19:28:13.374Z,97450.52
2024-04-06T19:30:40.687Z,97446.79
2024-04-06T19:33:08.162Z,97450.09
2024-04-06T19:35:34.976Z,97447.39
2024-04-06T19:38:02.073Z,97444.22
2024-04-06T19:40:29.423Z,97439.72
2024-04-06T19:42:56.450Z,97436.80
2024-04-06T19:45:23.388Z,97439.32
2024-04-06T19:47:50.444Z,97436.09
2024-04-06T19:50:17.300Z,97437.64
2024-04-06T19:52:44.507Z,97440.04
2024-04-06T19:55:15.418Z,97450.92
2024-04-06T19:57:48.601Z,97449.80
2024-04-06T20:00:16.702Z,97456.46
2024-04-06T20:02:43.713Z,97454.50
2024-04-06T20:05:11.908Z,97454.59
2024-04-06T20:07:39.013Z,97454.59
2024-04-06T20:10:06.538Z,97453.39
2024-04-06T20:12:33.590Z,97457.61
2024-04-06T20:15:00.753Z,97454.79
2024-04-06T20:17:28.538Z,97453.84
2024-04-06T20:19:56.061Z,97453.94
2024-04-06T20:22:41.649Z,97454.46
2024-04-06T20:25:27.439Z,97454.55
2024-04-06T20:27:54.787Z,97457.11
2024-04-06T20:30:21.681Z,97457.84
2024-04-06T20:32:48.883Z,97460.63
2024-04-06T20:35:16.048Z,97455.04
2024-04-06T20:37:43.208Z,97453.60
2024-04-06T20:40:12.879Z,97455.80
2024-04-06T20:42:40.326Z,97453.02
2024-04-06T20:45:08.890Z,97448.76
2024-04-06T20:47:36.097Z,97443.75
2024-04-06T20:50:03.601Z,97446.43
2024-04-06T20:52:30.653Z,97453.58
2024-04-06T20:54:59.114Z,97450.11
2024-04-06T20:57:25.930Z,97448.68
2024-04-06T20:59:53.064Z,97447.91
2024-04-06T21:02:20.287Z,97452.14
2024-04-06T21:04:47.245Z,97454.48
2024-04-06T21:07:14.079Z,97452.45
2024-04-06T21:09:42.021Z,97452.50
2024-04-06T21:12:09.563Z,97453.42
2024-04-06T21:14:36.582Z,97455.38
2024-04-06T21:17:04.144Z,97459.41
2024-04-06T21:19:31.239Z,97464.08
2024-04-06T21:21:58.293Z,97462.94
2024-04-06T21:24:25.208Z,97466.45
2024-04-06T21:26:52.354Z,97468.89
2024-04-06T21:29:19.627Z,97472.39
2024-04-06T21:31:47.595Z,97472.44
2024-04-06T21:34:14.403Z,97472.58
2024-04-06T21:36:42.014Z,97475.27
2024-04-06T21:39:09.030Z,97474.06
2024-04-06T21:41:37.926Z,97474.95
2024-04-06T21:44:05.051Z,97473.23
2024-04-06T21:46:32.282Z,97474.94
2024-04-06T21:48:59.246Z,97474.75
2024-04-06T21:51:26.478Z,97470.10
2024-04-06T21:53:53.175Z,97473.98
2024-04-06T21:56:21.299Z,97472.40
2024-04-06T21:58:48.251Z,97469.45
2024-04-06T22:01:15.200Z,97469.41
2024-04-06T22:03:42.073Z,97469.08
2024-04-06T22:06:09.198Z,97472.41
2024-04-06T22:08:35.894Z,97469.13
2024-04-06T22:11:04.227Z,97464.86
2024-04-06T22:13:31.714Z,97461.63
2024-04-06T22:15:58.856Z,97462.71
2024-04-06T22:18:25.907Z,97462.73
2024-04-06T22:20:52.919Z,97464.29
2024-04-06T22:23:19.847Z,97463.20
2024-04-06T22:25:48.032Z,97465.27
2024-04-06T22:28:15.555Z,97465.61
2024-04-06T22:30:43.066Z,97466.97
2024-04-06T22:33:10.646Z,97465.84
2024-04-06T22:35:37.645Z,97467.63
2024-04-06T22:38:05.107Z,97467.96
2024-04-06T22:40:32.678Z,97471.39
2024-04-06T22:42:59.982Z,97474.30
2024-04-06T22:45:27.185Z,97473.13
2024-04-06T22:47:54.152Z,97474.02
2024-04-06T22:50:21.237Z,97478.58
2024-04-06T22:52:48.244Z,97479.73
2024-04-06T22:55:15.642Z,97479.55
2024-04-06T22:57:42.679Z,97479.70
2024-04-06T23:00:12.372Z,97479.02
2024-04-06T23:02:39.430Z,97476.64
2024-04-06T23:05:06.887Z,97476.73
2024-04-06T23:07:36.368Z,97472.03
2024-04-06T23:10:04.060Z,97470.83
2024-04-06T23:12:31.436Z,97464.61
2024-04-06T23:14:58.622Z,97461.12
2024-04-06T23:17:25.657Z,97460.53
2024-04-06T23:19:52.792Z,97462.73
2024-04-06T23:22:20.499Z,97465.47
2024-04-06T23:24:48.257Z,97459.77
2024-04-06T23:27:15.279Z,97458.05
2024-04-06T23:29:44.188Z,97459.94
2024-04-06T23:32:11.444Z,97459.32
2024-04-06T23:34:38.637Z,97463.44
2024-04-06T23:37:05.752Z,97464.83
2024-04-06T23:39:36.997Z,97470.20
2024-04-06T23:42:06.014Z,97472.12
2024-04-06T23:44:32.830Z,97473.84
2024-04-06T23:46:59.765Z,97477.08
2024-04-06T23:49:26.854Z,97477.93
2024-04-06T23:51:54.824Z,97480.01
2024-04-06T23:54:21.800Z,97478.36
2024-04-06T23:56:48.826Z,97475.58
2024-04-06T23:59:15.732Z,97473.83
